createdAt,value
2022-08-17T00:00:55.056Z,77.71
2022-08-17T00:03:27.230Z,78.75
2022-08-17T00:06:04.029Z,78.61
2022-08-17T00:08:32.989Z,78.55
2022-08-17T00:10:59.716Z,78.41
2022-08-17T00:13:31.789Z,77.82
2022-08-17T00:16:05.410Z,78.64
2022-08-17T00:18:58.370Z,78.33
2022-08-17T00:21:24.006Z,79.06
2022-08-17T00:23:52.296Z,78.86
2022-08-17T00:26:43.644Z,79.09
2022-08-17T00:29:05.994Z,78.91
2022-08-17T00:31:32.924Z,79.11
2022-08-17T00:33:59.591Z,79.10
2022-08-17T00:36:26.519Z,79.07
2022-08-17T00:38:53.133Z,78.71
2022-08-17T00:41:23.404Z,78.78
2022-08-17T00:43:57.391Z,79.12
2022-08-17T00:46:27.845Z,79.43
2022-08-17T00:48:54.687Z,79.61
2022-08-17T00:51:53.330Z,79.90
2022-08-17T00:54:50.702Z,78.38
2022-08-17T00:57:20.097Z,78.84
2022-08-17T00:59:55.968Z,79.35
2022-08-17T01:02:30.834Z,79.74
2022-08-17T01:05:01.224Z,80.24
2022-08-17T01:07:27.827Z,79.67
2022-08-17T01:09:54.486Z,79.74
2022-08-17T01:12:21.462Z,80.19
2022-08-17T01:14:48.075Z,79.23
2022-08-17T01:17:14.723Z,79.38
2022-08-17T01:19:42.087Z,79.22
2022-08-17T01:22:20.548Z,79.21
2022-08-17T01:24:50.398Z,77.69
2022-08-17T01:27:18.443Z,77.06
2022-08-17T01:29:50.388Z,79.09
2022-08-17T01:32:17.001Z,80.06
2022-08-17T01:34:50.291Z,80.32
2022-08-17T01:37:17.652Z,80.15
2022-08-17T01:39:56.141Z,79.60
2022-08-17T01:42:26.760Z,80.00
2022-08-17T01:44:55.886Z,79.27
2022-08-17T01:47:23.344Z,80.24
2022-08-17T01:49:50.688Z,80.14
2022-08-17T01:52:17.531Z,79.48
2022-08-17T01:54:45.827Z,79.35
2022-08-17T01:57:12.574Z,79.95
2022-08-17T01:59:39.296Z,81.19
2022-08-17T02:02:06.005Z,81.06
2022-08-17T02:04:32.749Z,81.19
2022-08-17T02:06:59.392Z,81.06
2022-08-17T02:09:29.983Z,81.66
2022-08-17T02:11:57.659Z,81.13
2022-08-17T02:14:25.313Z,81.72
2022-08-17T02:16:52.086Z,81.52
2022-08-17T02:19:18.901Z,80.22
2022-08-17T02:21:46.978Z,75.62
2022-08-17T02:25:01.044Z,75.77
2022-08-17T02:27:11.627Z,77.65
2022-08-17T02:29:38.257Z,79.92
2022-08-17T02:32:05.206Z,80.95
2022-08-17T02:34:31.855Z,81.12
2022-08-17T02:36:58.463Z,80.85
2022-08-17T02:39:25.197Z,80.01
2022-08-17T02:42:00.412Z,80.06
2022-08-17T02:44:35.349Z,80.23
2022-08-17T02:47:07.892Z,81.81
2022-08-17T02:49:34.481Z,81.73
2022-08-17T02:52:03.008Z,80.58
2022-08-17T02:54:40.395Z,81.16
2022-08-17T02:57:08.664Z,81.83
2022-08-17T02:59:35.354Z,81.34
2022-08-17T03:02:03.959Z,81.45
2022-08-17T03:04:31.064Z,81.49
2022-08-17T03:07:01.566Z,81.58
2022-08-17T03:09:28.201Z,81.72
2022-08-17T03:11:56.010Z,82.11
2022-08-17T03:14:26.148Z,81.91
2022-08-17T03:16:53.123Z,81.88
2022-08-17T03:19:19.737Z,81.96
2022-08-17T03:21:46.529Z,82.26
2022-08-17T03:24:21.744Z,81.63
2022-08-17T03:26:55.382Z,80.46
2022-08-17T03:29:21.970Z,80.70
2022-08-17T03:31:49.089Z,81.72
2022-08-17T03:34:16.026Z,81.36
2022-08-17T03:36:42.844Z,82.04
2022-08-17T03:39:09.569Z,81.12
2022-08-17T03:41:36.259Z,80.84
2022-08-17T03:44:03.191Z,81.35
2022-08-17T03:46:35.175Z,81.89
2022-08-17T03:49:06.479Z,82.62
2022-08-17T03:51:33.527Z,80.86
2022-08-17T03:54:00.280Z,80.16
2022-08-17T03:56:26.904Z,80.50
2022-08-17T03:58:53.484Z,81.75
2022-08-17T04:01:20.147Z,81.63
2022-08-17T04:03:46.817Z,78.33
2022-08-17T04:06:13.442Z,77.21
2022-08-17T04:08:40.055Z,78.51
2022-08-17T04:11:06.731Z,79.97
2022-08-17T04:13:33.331Z,80.19
2022-08-17T04:16:00.046Z,80.90
2022-08-17T04:18:26.762Z,81.29
2022-08-17T04:20:53.339Z,81.45
2022-08-17T04:23:20.078Z,82.46
2022-08-17T04:25:50.276Z,82.84
2022-08-17T04:28:18.042Z,83.18
2022-08-17T04:30:45.113Z,79.09
2022-08-17T04:33:16.609Z,79.31
2022-08-17T04:35:48.686Z,79.73
2022-08-17T04:38:17.699Z,80.49
2022-08-17T04:40:44.385Z,81.97
2022-08-17T04:43:15.777Z,82.41
2022-08-17T04:45:57.164Z,82.95
2022-08-17T04:48:27.865Z,83.04
2022-08-17T04:51:02.885Z,82.86
2022-08-17T04:53:29.533Z,82.59
2022-08-17T04:55:56.209Z,83.24
2022-08-17T04:58:22.895Z,83.55
2022-08-17T05:00:49.584Z,82.36
2022-08-17T05:03:16.271Z,82.52
2022-08-17T05:05:42.926Z,82.44
2022-08-17T05:08:09.757Z,82.04
2022-08-17T05:10:37.316Z,81.64
2022-08-17T05:13:14.348Z,81.05
2022-08-17T05:15:44.705Z,82.26
2022-08-17T05:18:11.887Z,81.89
2022-08-17T05:20:39.256Z,81.67
2022-08-17T05:23:07.571Z,81.29
2022-08-17T05:25:36.338Z,81.99
2022-08-17T05:28:04.496Z,81.23
2022-08-17T05:30:33.191Z,81.03
2022-08-17T05:33:08.041Z,80.99
2022-08-17T05:35:35.582Z,81.03
2022-08-17T05:38:02.224Z,81.66
2022-08-17T05:40:32.859Z,79.29
2022-08-17T05:43:10.681Z,74.71
2022-08-17T05:45:54.698Z,73.00
2022-08-17T05:48:22.699Z,72.04
2022-08-17T05:51:37.717Z,71.57
2022-08-17T05:54:26.206Z,71.47
2022-08-17T05:57:12.368Z,73.66
2022-08-17T06:00:20.340Z,73.44
2022-08-17T06:02:50.534Z,72.36
2022-08-17T06:05:17.186Z,73.98
2022-08-17T06:07:50.253Z,76.73
2022-08-17T06:10:30.231Z,78.51
2022-08-17T06:13:10.466Z,79.27
2022-08-17T06:16:02.832Z,76.00
2022-08-17T06:18:33.768Z,74.63
2022-08-17T06:21:02.046Z,77.19
2022-08-17T06:23:43.079Z,79.45
2022-08-17T06:26:34.535Z,80.40
2022-08-17T06:29:32.819Z,80.72
2022-08-17T06:31:59.429Z,78.24
2022-08-17T06:34:26.089Z,77.18
2022-08-17T06:37:03.725Z,76.16
2022-08-17T06:39:50.698Z,77.41
2022-08-17T06:43:05.283Z,78.41
2022-08-17T06:45:41.729Z,76.56
2022-08-17T06:48:15.600Z,75.35
2022-08-17T06:50:44.609Z,75.09
2022-08-17T06:53:24.617Z,74.78
2022-08-17T06:56:05.268Z,75.95
2022-08-17T06:58:32.407Z,74.98
2022-08-17T07:01:07.749Z,74.20
2022-08-17T07:06:50.980Z,73.77
2022-08-17T07:09:34.144Z,71.25
2022-08-17T07:12:04.451Z,71.84
2022-08-17T07:14:35.334Z,74.27
2022-08-17T07:17:22.439Z,76.14
2022-08-17T07:20:14.968Z,76.79
2022-08-17T07:23:00.185Z,75.34
2022-08-17T07:25:27.322Z,75.49
2022-08-17T07:27:55.187Z,74.25
2022-08-17T07:30:25.694Z,74.61
2022-08-17T07:33:07.117Z,71.94
2022-08-17T07:35:41.312Z,70.40
2022-08-17T07:38:25.349Z,66.57
2022-08-17T07:40:56.034Z,64.32
2022-08-17T07:43:26.077Z,61.96
2022-08-17T07:46:01.948Z,61.77
2022-08-17T07:48:28.681Z,59.56
2022-08-17T07:50:55.479Z,59.18
2022-08-17T07:53:24.281Z,59.00
2022-08-17T07:55:51.794Z,57.26
2022-08-17T07:58:20.075Z,57.00
2022-08-17T08:00:46.700Z,56.44
2022-08-17T08:03:23.693Z,53.09
2022-08-17T08:05:57.624Z,53.25
2022-08-17T08:08:40.459Z,52.75
2022-08-17T08:11:13.887Z,55.18
2022-08-17T08:13:41.731Z,51.20
2022-08-17T08:16:21.479Z,51.17
2022-08-17T08:18:55.640Z,50.65
2022-08-17T08:21:44.787Z,48.61
2022-08-17T08:24:18.702Z,47.54
2022-08-17T08:26:50.712Z,48.52
2022-08-17T08:29:20.387Z,45.90
2022-08-17T08:31:46.872Z,47.08
2022-08-17T08:35:00.580Z,44.97
2022-08-17T08:37:51.015Z,44.75
2022-08-17T08:40:42.549Z,41.68
2022-08-17T08:43:32.131Z,40.83
2022-08-17T08:46:07.948Z,43.98
2022-08-17T08:49:06.555Z,40.41
2022-08-17T08:51:55.825Z,42.11
2022-08-17T08:54:31.446Z,41.56
2022-08-17T08:57:24.302Z,40.35
2022-08-17T09:00:05.354Z,39.16
2022-08-17T09:03:01.220Z,39.88
2022-08-17T09:05:42.818Z,37.96
2022-08-17T09:08:19.846Z,36.69
2022-08-17T09:10:52.547Z,38.66
2022-08-17T09:13:27.019Z,35.85
2022-08-17T09:15:57.755Z,36.73
2022-08-17T09:18:59.068Z,36.67
2022-08-17T09:21:23.247Z,39.98
2022-08-17T09:24:21.705Z,37.80
2022-08-17T09:27:13.785Z,36.72
2022-08-17T09:29:44.634Z,33.72
2022-08-17T09:32:22.349Z,35.41
2022-08-17T09:34:53.657Z,33.66
2022-08-17T09:37:37.650Z,33.89
2022-08-17T09:40:23.929Z,34.45
2022-08-17T09:43:13.198Z,35.25
2022-08-17T09:45:47.385Z,34.17
2022-08-17T09:48:26.942Z,35.76
2022-08-17T09:51:06.462Z,35.30
2022-08-17T09:53:36.906Z,34.63
2022-08-17T09:56:09.316Z,31.99
2022-08-17T09:59:03.968Z,30.92
2022-08-17T10:01:39.419Z,34.73
2022-08-17T10:04:29.365Z,30.73
2022-08-17T10:07:07.960Z,29.71
2022-08-17T10:09:46.865Z,32.92
2022-08-17T10:12:20.627Z,30.64
2022-08-17T10:14:58.117Z,32.28
2022-08-17T10:18:04.145Z,31.21
2022-08-17T10:20:59.627Z,29.19
2022-08-17T10:23:27.820Z,30.77
2022-08-17T10:26:09.565Z,32.44
2022-08-17T10:28:53.945Z,31.26
2022-08-17T10:31:35.498Z,30.72
2022-08-17T10:34:41.199Z,32.53
2022-08-17T10:37:28.751Z,32.09
2022-08-17T10:40:11.421Z,31.91
2022-08-17T10:43:02.404Z,29.41
2022-08-17T10:46:10.308Z,28.85
2022-08-17T10:48:38.567Z,29.73
2022-08-17T10:51:08.042Z,31.53
2022-08-17T10:53:34.556Z,32.37
2022-08-17T10:56:13.258Z,27.77
2022-08-17T10:58:55.993Z,28.45
2022-08-17T11:01:37.712Z,32.38
2022-08-17T11:04:17.416Z,31.16
2022-08-17T11:06:57.145Z,28.93
2022-08-17T11:10:08.297Z,30.79
2022-08-17T11:12:42.387Z,30.91
2022-08-17T11:15:17.948Z,31.61
2022-08-17T11:18:07.091Z,32.64
2022-08-17T11:20:46.183Z,33.29
2022-08-17T11:23:27.878Z,32.98
2022-08-17T11:25:58.771Z,31.40
2022-08-17T11:28:30.919Z,30.79
2022-08-17T11:30:59.268Z,31.56
2022-08-17T11:33:29.876Z,32.27
2022-08-17T11:36:38.004Z,31.17
2022-08-17T11:39:17.783Z,33.10
2022-08-17T11:41:55.710Z,30.56
2022-08-17T11:44:37.818Z,30.19
2022-08-17T11:47:23.038Z,30.50
2022-08-17T11:50:00.744Z,31.87
2022-08-17T11:52:38.341Z,29.69
2022-08-17T11:55:31.761Z,31.80
2022-08-17T11:58:05.340Z,31.33
2022-08-17T12:00:47.302Z,30.37
2022-08-17T12:03:22.699Z,31.80
2022-08-17T12:05:49.501Z,32.22
2022-08-17T12:08:19.534Z,32.43
2022-08-17T12:11:07.671Z,30.77
2022-08-17T12:13:45.829Z,32.38
2022-08-17T12:16:16.841Z,31.72
2022-08-17T12:18:57.475Z,31.88
2022-08-17T12:21:40.526Z,31.35
2022-08-17T12:24:28.828Z,30.71
2022-08-17T12:27:00.901Z,32.52
2022-08-17T12:29:38.410Z,32.87
2022-08-17T12:32:06.656Z,30.78
2022-08-17T12:34:36.005Z,30.15
2022-08-17T12:37:06.827Z,29.51
2022-08-17T12:39:33.939Z,30.95
2022-08-17T12:42:02.529Z,32.17
2022-08-17T12:44:35.486Z,32.61
2022-08-17T12:47:23.244Z,31.38
2022-08-17T12:49:54.422Z,31.93
2022-08-17T12:52:26.073Z,31.19
2022-08-17T12:55:19.254Z,30.27
2022-08-17T12:57:50.152Z,30.82
2022-08-17T13:00:25.874Z,32.36
2022-08-17T13:02:54.629Z,31.91
2022-08-17T13:05:25.469Z,31.23
2022-08-17T13:07:52.638Z,31.78
2022-08-17T13:10:30.074Z,31.00
2022-08-17T13:12:59.098Z,30.23
2022-08-17T13:15:29.666Z,31.20
2022-08-17T13:18:09.976Z,30.32
2022-08-17T13:20:37.132Z,30.26
2022-08-17T13:23:09.973Z,29.96
2022-08-17T13:25:38.834Z,31.28
2022-08-17T13:28:05.536Z,31.75
2022-08-17T13:30:32.483Z,31.88
2022-08-17T13:32:59.826Z,31.01
2022-08-17T13:35:39.755Z,31.19
2022-08-17T13:38:12.480Z,30.65
2022-08-17T13:40:42.522Z,30.25
2022-08-17T13:43:09.413Z,30.30
2022-08-17T13:45:50.825Z,30.40
2022-08-17T13:48:28.820Z,29.91
2022-08-17T13:50:55.422Z,32.14
2022-08-17T13:53:31.272Z,33.05
2022-08-17T13:56:33.447Z,30.11
2022-08-17T13:59:36.361Z,29.79
2022-08-17T14:02:11.554Z,29.26
2022-08-17T14:04:39.613Z,29.15
2022-08-17T14:07:09.230Z,30.07
2022-08-17T14:09:57.000Z,30.31
2022-08-17T14:12:25.300Z,30.53
2022-08-17T14:14:52.268Z,31.93
2022-08-17T14:17:18.966Z,32.34
2022-08-17T14:19:45.581Z,33.04
2022-08-17T14:22:18.262Z,32.45
2022-08-17T14:24:45.187Z,31.03
2022-08-17T14:27:11.891Z,30.98
2022-08-17T14:29:38.562Z,32.09
2022-08-17T14:32:21.803Z,33.08
2022-08-17T14:34:49.415Z,30.71
2022-08-17T14:37:17.084Z,32.16
2022-08-17T14:39:43.833Z,32.70
2022-08-17T14:42:10.560Z,31.42
2022-08-17T14:44:38.744Z,33.66
2022-08-17T14:47:26.892Z,29.46
2022-08-17T14:49:53.527Z,29.80
2022-08-17T14:52:20.702Z,32.18
2022-08-17T14:54:48.632Z,30.97
2022-08-17T14:57:25.933Z,31.26
2022-08-17T15:00:00.656Z,30.96
2022-08-17T15:02:30.059Z,30.06
2022-08-17T15:05:04.485Z,30.60
2022-08-17T15:07:33.093Z,29.88
2022-08-17T15:10:00.637Z,32.52
2022-08-17T15:12:32.239Z,33.14
2022-08-17T15:14:59.742Z,31.53
2022-08-17T15:17:26.407Z,32.96
2022-08-17T15:20:19.237Z,33.10
2022-08-17T15:22:46.154Z,31.82
2022-08-17T15:25:12.959Z,30.34
2022-08-17T15:27:39.621Z,31.56
2022-08-17T15:30:07.199Z,30.60
2022-08-17T15:32:35.731Z,31.11
2022-08-17T15:35:02.771Z,31.14
2022-08-17T15:37:29.492Z,32.33
2022-08-17T15:39:56.278Z,31.56
2022-08-17T15:42:23.040Z,29.90
2022-08-17T15:44:49.673Z,30.58
2022-08-17T15:47:16.428Z,31.43
2022-08-17T15:49:43.702Z,32.46
2022-08-17T15:52:21.162Z,31.85
2022-08-17T15:54:55.474Z,33.30
2022-08-17T15:57:22.189Z,32.45
2022-08-17T15:59:54.006Z,32.86
2022-08-17T16:03:45.965Z,33.43
2022-08-17T16:05:17.528Z,32.64
2022-08-17T16:07:46.650Z,34.13
2022-08-17T16:10:18.640Z,35.98
2022-08-17T16:12:46.221Z,34.37
2022-08-17T16:15:13.145Z,32.79
2022-08-17T16:17:40.809Z,32.90
2022-08-17T16:20:20.472Z,35.87
2022-08-17T16:22:47.742Z,35.12
2022-08-17T16:25:17.086Z,35.54
2022-08-17T16:27:43.819Z,34.54
2022-08-17T16:30:16.947Z,35.10
2022-08-17T16:32:44.185Z,34.08
2022-08-17T16:35:11.472Z,34.68
2022-08-17T16:37:38.611Z,35.66
2022-08-17T16:40:06.461Z,37.64
2022-08-17T16:42:33.976Z,33.93
2022-08-17T16:45:21.693Z,35.84
2022-08-17T16:47:48.326Z,37.79
2022-08-17T16:50:15.700Z,41.03
2022-08-17T16:52:42.384Z,40.69
2022-08-17T16:55:10.474Z,40.14
2022-08-17T16:57:47.387Z,42.26
2022-08-17T17:00:18.472Z,43.64
2022-08-17T17:02:47.586Z,43.65
2022-08-17T17:05:38.651Z,44.56
2022-08-17T17:08:23.973Z,44.37
2022-08-17T17:10:52.590Z,46.01
2022-08-17T17:13:52.358Z,46.14
2022-08-17T17:16:29.674Z,43.61
2022-08-17T17:19:11.376Z,47.63
2022-08-17T17:21:53.162Z,48.93
2022-08-17T17:24:32.753Z,49.42
2022-08-17T17:27:15.218Z,49.98
2022-08-17T17:30:20.378Z,52.67
2022-08-17T17:33:14.986Z,53.03
2022-08-17T17:35:56.768Z,54.13
2022-08-17T17:38:29.180Z,55.41
2022-08-17T17:41:02.531Z,55.63
2022-08-17T17:43:40.147Z,54.34
2022-08-17T17:46:28.429Z,52.42
2022-08-17T17:48:56.627Z,51.93
2022-08-17T17:52:05.261Z,53.50
2022-08-17T17:55:01.354Z,52.44
2022-08-17T17:57:33.810Z,52.44
2022-08-17T18:00:15.123Z,55.88
2022-08-17T18:02:51.942Z,57.65
2022-08-17T18:05:31.471Z,58.42
2022-08-17T18:08:12.263Z,58.44
2022-08-17T18:11:04.535Z,59.36
2022-08-17T18:14:02.362Z,59.31
2022-08-17T18:16:29.184Z,60.25
2022-08-17T18:18:58.524Z,59.98
2022-08-17T18:21:37.939Z,58.59
2022-08-17T18:24:06.276Z,57.12
2022-08-17T18:26:33.034Z,59.30
2022-08-17T18:29:02.700Z,58.42
2022-08-17T18:31:29.382Z,58.00
2022-08-17T18:34:45.865Z,59.82
2022-08-17T18:37:11.409Z,61.26
2022-08-17T18:39:43.061Z,60.42
2022-08-17T18:42:24.336Z,60.02
2022-08-17T18:44:54.877Z,60.46
2022-08-17T18:47:27.208Z,62.88
2022-08-17T18:50:13.496Z,61.70
2022-08-17T18:52:40.178Z,62.12
2022-08-17T18:55:23.873Z,61.78
2022-08-17T18:57:58.285Z,61.69
2022-08-17T19:00:30.554Z,62.27
2022-08-17T19:03:00.995Z,63.20
2022-08-17T19:05:32.828Z,62.50
2022-08-17T19:08:18.207Z,64.41
2022-08-17T19:10:46.722Z,64.29
2022-08-17T19:13:29.023Z,63.88
2022-08-17T19:16:14.718Z,64.11
2022-08-17T19:18:51.006Z,64.30
2022-08-17T19:21:33.537Z,64.14
2022-08-17T19:24:16.671Z,63.40
2022-08-17T19:26:50.585Z,63.51
2022-08-17T19:29:50.072Z,62.99
2022-08-17T19:32:18.181Z,62.85
2022-08-17T19:34:45.129Z,63.74
2022-08-17T19:37:28.221Z,65.48
2022-08-17T19:40:29.249Z,64.61
2022-08-17T19:43:14.551Z,65.77
2022-08-17T19:46:03.843Z,66.40
2022-08-17T19:48:56.973Z,65.04
2022-08-17T19:51:31.311Z,66.28
2022-08-17T19:54:25.811Z,65.74
2022-08-17T19:57:12.276Z,65.59
2022-08-17T19:59:44.994Z,66.46
2022-08-17T20:02:26.423Z,66.20
2022-08-17T20:04:56.228Z,65.33
2022-08-17T20:07:26.258Z,63.89
2022-08-17T20:10:06.025Z,64.23
2022-08-17T20:12:37.555Z,64.67
2022-08-17T20:15:17.999Z,65.63
2022-08-17T20:17:46.121Z,65.34
2022-08-17T20:20:19.655Z,66.04
2022-08-17T20:22:52.757Z,65.84
2022-08-17T20:25:31.425Z,65.95
2022-08-17T20:28:18.716Z,66.97
2022-08-17T20:30:45.576Z,67.40
2022-08-17T20:33:33.513Z,68.07
2022-08-17T20:35:59.949Z,67.60
2022-08-17T20:38:44.742Z,66.93
2022-08-17T20:41:19.121Z,67.21
2022-08-17T20:43:50.639Z,67.67
2022-08-17T20:46:32.725Z,67.40
2022-08-17T20:49:08.252Z,67.80
2022-08-17T20:51:39.487Z,67.10
2022-08-17T20:55:04.807Z,67.27
2022-08-17T20:57:31.277Z,67.39
2022-08-17T21:00:20.738Z,67.43
2022-08-17T21:02:49.132Z,68.06
2022-08-17T21:05:34.344Z,66.54
2022-08-17T21:08:14.768Z,68.48
2022-08-17T21:10:41.776Z,67.24
2022-08-17T21:13:08.549Z,67.40
2022-08-17T21:16:08.987Z,67.03
2022-08-17T21:18:38.569Z,66.32
2022-08-17T21:21:17.899Z,65.10
2022-08-17T21:24:13.709Z,66.01
2022-08-17T21:26:58.871Z,66.10
2022-08-17T21:29:32.286Z,66.07
2022-08-17T21:32:03.321Z,66.60
2022-08-17T21:34:34.714Z,67.28
2022-08-17T21:37:20.332Z,67.33
2022-08-17T21:39:49.495Z,68.89
2022-08-17T21:42:16.360Z,68.08
2022-08-17T21:44:48.177Z,67.06
2022-08-17T21:47:22.077Z,66.78
2022-08-17T21:49:48.846Z,66.70
2022-08-17T21:52:19.044Z,67.09
2022-08-17T21:54:50.242Z,67.13
2022-08-17T21:57:19.120Z,67.01
2022-08-17T21:59:45.787Z,67.56
2022-08-17T22:02:20.210Z,67.40
2022-08-17T22:05:08.660Z,67.18
2022-08-17T22:08:02.403Z,66.43
2022-08-17T22:10:42.216Z,66.04
2022-08-17T22:13:21.709Z,66.21
2022-08-17T22:16:15.606Z,66.57
2022-08-17T22:18:55.735Z,66.30
2022-08-17T22:21:24.594Z,66.55
2022-08-17T22:24:03.797Z,66.69
2022-08-17T22:27:06.061Z,66.01
2022-08-17T22:29:42.912Z,67.59
2022-08-17T22:32:09.617Z,67.64
2022-08-17T22:34:36.293Z,67.80
2022-08-17T22:37:27.272Z,68.52
2022-08-17T22:39:58.522Z,68.26
2022-08-17T22:42:25.241Z,67.81
2022-08-17T22:44:51.877Z,67.11
2022-08-17T22:47:18.409Z,67.31
2022-08-17T22:49:55.879Z,67.44
2022-08-17T22:52:29.946Z,67.10
2022-08-17T22:55:12.383Z,68.36
2022-08-17T22:57:39.081Z,69.44
2022-08-17T23:00:06.243Z,69.88
2022-08-17T23:02:34.397Z,69.61
2022-08-17T23:05:10.081Z,69.48
2022-08-17T23:07:36.762Z,69.85
2022-08-17T23:10:04.026Z,69.91
2022-08-17T23:12:30.635Z,70.45
2022-08-17T23:14:58.569Z,70.71
2022-08-17T23:17:25.269Z,69.88
2022-08-17T23:19:51.933Z,69.24
2022-08-17T23:22:18.526Z,68.02
2022-08-17T23:24:46.238Z,68.01
2022-08-17T23:27:12.882Z,68.27
2022-08-17T23:29:39.596Z,68.74
2022-08-17T23:32:06.409Z,68.33
2022-08-17T23:34:33.144Z,68.42
2022-08-17T23:36:59.764Z,68.89
2022-08-17T23:39:28.240Z,69.22
2022-08-17T23:41:56.474Z,69.78
2022-08-17T23:44:23.221Z,69.73
2022-08-17T23:46:51.045Z,68.10
2022-08-17T23:49:17.728Z,67.11
2022-08-17T23:51:44.438Z,67.05
2022-08-17T23:54:23.288Z,62.21
2022-08-17T23:56:49.925Z,61.09
2022-08-17T23:59:17.883Z,61.01
